createdAt,value
2022-11-01T00:01:06.663Z,97975.28
2022-11-01T00:03:33.205Z,97979.03
2022-11-01T00:06:00.019Z,97968.56
2022-11-01T00:08:26.493Z,97972.59
2022-11-01T00:10:52.928Z,97975.13
2022-11-01T00:13:19.341Z,97963.03
2022-11-01T00:15:45.777Z,97968.91
2022-11-01T00:18:12.231Z,97975.72
2022-11-01T00:20:38.732Z,97966.59
2022-11-01T00:23:05.397Z,97977.00
2022-11-01T00:25:31.876Z,97971.28
2022-11-01T00:27:58.561Z,97979.59
2022-11-01T00:30:25.359Z,97968.03
2022-11-01T00:32:51.776Z,97963.25
2022-11-01T00:35:18.203Z,97971.59
2022-11-01T00:37:44.616Z,97964.38
2022-11-01T00:40:11.288Z,97966.66
2022-11-01T00:42:37.936Z,97961.97
2022-11-01T00:45:05.097Z,97962.72
2022-11-01T00:47:31.590Z,97952.28
2022-11-01T00:49:58.031Z,97959.66
2022-11-01T00:52:24.594Z,97946.00
2022-11-01T00:54:51.012Z,97949.09
2022-11-01T00:57:17.469Z,97948.47
2022-11-01T00:59:43.945Z,97955.88
2022-11-01T01:02:10.619Z,97951.41
2022-11-01T01:04:41.572Z,97957.56
2022-11-01T01:07:08.211Z,97959.63
2022-11-01T01:09:34.632Z,97956.97
2022-11-01T01:12:01.847Z,97951.88
2022-11-01T01:14:32.248Z,97945.38
2022-11-01T01:16:59.202Z,97953.41
2022-11-01T01:19:25.674Z,97948.13
2022-11-01T01:21:52.087Z,97951.41
2022-11-01T01:24:18.532Z,97943.16
2022-11-01T01:26:44.958Z,97944.63
2022-11-01T01:29:11.625Z,97945.41
2022-11-01T01:31:38.040Z,97931.75
2022-11-01T01:34:04.474Z,97937.88
2022-11-01T01:36:30.917Z,97930.78
2022-11-01T01:38:57.364Z,97934.97
2022-11-01T01:41:42.531Z,97929.91
2022-11-01T01:44:27.578Z,97936.88
2022-11-01T01:46:54.076Z,97929.50
2022-11-01T01:49:20.513Z,97925.22
2022-11-01T01:51:46.954Z,97931.25
2022-11-01T01:54:13.404Z,97933.53
2022-11-01T01:56:39.908Z,97920.84
2022-11-01T01:59:10.145Z,97924.78
2022-11-01T02:01:38.445Z,97917.91
2022-11-01T02:04:07.126Z,97925.59
2022-11-01T02:06:34.673Z,97920.66
2022-11-01T02:09:03.233Z,97918.63
2022-11-01T02:11:29.639Z,97927.63
2022-11-01T02:13:57.906Z,97920.84
2022-11-01T02:16:27.126Z,97922.03
2022-11-01T02:19:03.777Z,97909.50
2022-11-01T02:21:47.045Z,97911.38
2022-11-01T02:24:35.437Z,97913.69
2022-11-01T02:27:16.153Z,97909.78
2022-11-01T02:29:51.899Z,97912.91
2022-11-01T02:32:37.317Z,97903.16
2022-11-01T02:35:09.775Z,97903.63
2022-11-01T02:37:36.287Z,97912.31
2022-11-01T02:40:07.547Z,97916.44
2022-11-01T02:42:55.096Z,97914.22
2022-11-01T02:45:33.828Z,97906.13
2022-11-01T02:48:01.221Z,97900.47
2022-11-01T02:50:29.945Z,97906.31
2022-11-01T02:52:56.487Z,97897.66
2022-11-01T02:55:35.443Z,97906.19
2022-11-01T02:58:06.309Z,97894.72
2022-11-01T03:00:34.363Z,97908.28
2022-11-01T03:03:06.684Z,97905.81
2022-11-01T03:05:40.900Z,97901.66
2022-11-01T03:08:09.419Z,97914.59
2022-11-01T03:10:45.165Z,97902.84
2022-11-01T03:13:34.255Z,97907.03
2022-11-01T03:16:07.015Z,97902.81
2022-11-01T03:18:35.324Z,97906.44
2022-11-01T03:21:15.471Z,97911.56
2022-11-01T03:23:47.939Z,97904.03
2022-11-01T03:26:16.369Z,97901.59
2022-11-01T03:28:45.876Z,97906.75
2022-11-01T03:31:15.099Z,97906.88
2022-11-01T03:33:50.043Z,97897.53
2022-11-01T03:36:19.758Z,97891.16
2022-11-01T03:38:51.400Z,97890.59
2022-11-01T03:41:19.836Z,97901.06
2022-11-01T03:43:47.396Z,97901.94
2022-11-01T03:46:14.505Z,97893.84
2022-11-01T03:48:41.537Z,97887.06
2022-11-01T03:51:08.059Z,97892.31
2022-11-01T03:53:34.483Z,97892.84
2022-11-01T03:56:01.029Z,97903.47
2022-11-01T03:58:41.769Z,97897.13
2022-11-01T04:01:09.280Z,97897.09
2022-11-01T04:03:36.344Z,97900.53
2022-11-01T04:06:03.125Z,97898.56
2022-11-01T04:08:29.542Z,97905.59
2022-11-01T04:10:55.961Z,97898.94
2022-11-01T04:13:22.673Z,97897.69
2022-11-01T04:16:18.152Z,97896.97
2022-11-01T04:19:03.057Z,97893.69
2022-11-01T04:21:31.168Z,97894.00
2022-11-01T04:23:57.859Z,97889.75
2022-11-01T04:26:24.304Z,97878.41
2022-11-01T04:28:59.853Z,97887.91
2022-11-01T04:31:28.028Z,97874.34
2022-11-01T04:33:55.368Z,97883.53
2022-11-01T04:36:21.875Z,97885.09
2022-11-01T04:38:49.269Z,97878.03
2022-11-01T04:41:19.371Z,97881.84
2022-11-01T04:43:46.642Z,97884.66
2022-11-01T04:46:13.225Z,97876.03
2022-11-01T04:48:39.884Z,97873.78
2022-11-01T04:51:06.465Z,97875.34
2022-11-01T04:53:32.932Z,97878.44
2022-11-01T04:56:00.840Z,97874.19
2022-11-01T04:58:27.346Z,97866.13
2022-11-01T05:00:53.848Z,97876.59
2022-11-01T05:03:20.317Z,97879.44
2022-11-01T05:05:46.845Z,97883.69
2022-11-01T05:08:13.452Z,97870.50
2022-11-01T05:10:41.367Z,97885.38
2022-11-01T05:13:08.481Z,97880.97
2022-11-01T05:15:39.798Z,97887.22
2022-11-01T05:18:10.184Z,97873.03
2022-11-01T05:20:36.615Z,97871.06
2022-11-01T05:23:03.937Z,97869.25
2022-11-01T05:25:33.989Z,97882.94
2022-11-01T05:28:07.120Z,97884.09
2022-11-01T05:30:34.514Z,97883.53
2022-11-01T05:33:01.560Z,97873.22
2022-11-01T05:35:28.996Z,97892.44
2022-11-01T05:37:55.520Z,97896.28
2022-11-01T05:40:22.961Z,97883.97
2022-11-01T05:42:49.712Z,97887.50
2022-11-01T05:45:16.301Z,97875.06
2022-11-01T05:47:43.928Z,97883.53
2022-11-01T05:50:14.813Z,97879.28
2022-11-01T05:52:41.481Z,97880.44
2022-11-01T05:55:08.877Z,97886.94
2022-11-01T05:57:35.436Z,97881.13
2022-11-01T06:00:01.962Z,97877.00
2022-11-01T06:02:38.451Z,97884.38
2022-11-01T06:05:05.118Z,97885.78
2022-11-01T06:07:31.573Z,97892.19
2022-11-01T06:09:58.015Z,97886.06
2022-11-01T06:12:25.225Z,97891.72
2022-11-01T06:14:52.041Z,97884.94
2022-11-01T06:17:18.623Z,97887.50
2022-11-01T06:19:45.098Z,97887.22
2022-11-01T06:22:11.506Z,97891.31
2022-11-01T06:24:37.930Z,97897.84
2022-11-01T06:27:08.512Z,97897.53
2022-11-01T06:29:36.509Z,97880.16
2022-11-01T06:32:03.505Z,97888.63
2022-11-01T06:34:29.943Z,97887.22
2022-11-01T06:36:56.372Z,97895.72
2022-11-01T06:39:23.019Z,97886.09
2022-11-01T06:41:49.836Z,97877.00
2022-11-01T06:44:16.314Z,97888.22
2022-11-01T06:46:42.803Z,97887.34
2022-11-01T06:49:10.654Z,97897.41
2022-11-01T06:51:38.868Z,97879.41
2022-11-01T06:54:05.321Z,97884.53
2022-11-01T06:56:31.745Z,97885.22
2022-11-01T06:58:58.184Z,97880.97
2022-11-01T07:01:25.815Z,97891.31
2022-11-01T07:03:52.432Z,97892.03
2022-11-01T07:06:19.424Z,97891.69
2022-11-01T07:08:46.160Z,97893.66
2022-11-01T07:11:12.584Z,97893.66
2022-11-01T07:13:39.083Z,97893.94
2022-11-01T07:16:05.731Z,97890.88
2022-11-01T07:18:32.584Z,97888.28
2022-11-01T07:21:01.006Z,97897.00
2022-11-01T07:23:29.291Z,97894.78
2022-11-01T07:25:56.063Z,97897.13
2022-11-01T07:28:22.850Z,97892.59
2022-11-01T07:30:49.800Z,97896.84
2022-11-01T07:33:16.794Z,97896.88
2022-11-01T07:35:43.395Z,97904.91
2022-11-01T07:38:13.141Z,97901.53
2022-11-01T07:40:40.185Z,97896.75
2022-11-01T07:43:06.682Z,97885.03
2022-11-01T07:45:34.507Z,97894.72
2022-11-01T07:48:05.602Z,97895.91
2022-11-01T07:50:33.164Z,97898.94
2022-11-01T07:53:00.618Z,97907.31
2022-11-01T07:55:27.166Z,97903.31
2022-11-01T07:57:53.606Z,97907.91
2022-11-01T08:00:20.960Z,97906.94
2022-11-01T08:02:47.424Z,97902.41
2022-11-01T08:05:13.916Z,97901.88
2022-11-01T08:07:40.349Z,97899.59
2022-11-01T08:10:07.336Z,97902.34
2022-11-01T08:12:33.795Z,97902.09
2022-11-01T08:15:02.392Z,97899.09
2022-11-01T08:17:29.201Z,97905.94
2022-11-01T08:19:55.773Z,97901.66
2022-11-01T08:22:22.229Z,97902.34
2022-11-01T08:24:48.653Z,97892.56
2022-11-01T08:27:15.220Z,97902.06
2022-11-01T08:29:41.881Z,97896.09
2022-11-01T08:32:08.361Z,97893.34
2022-11-01T08:34:34.860Z,97904.53
2022-11-01T08:37:01.334Z,97894.09
2022-11-01T08:39:27.817Z,97901.59
2022-11-01T08:41:54.301Z,97888.66
2022-11-01T08:44:20.807Z,97893.91
2022-11-01T08:46:47.297Z,97896.00
2022-11-01T08:49:14.072Z,97891.63
2022-11-01T08:51:40.523Z,97884.66
2022-11-01T08:54:10.056Z,97884.97
2022-11-01T08:56:36.455Z,97887.78
2022-11-01T08:59:03.182Z,97880.19
2022-11-01T09:01:29.753Z,97882.19
2022-11-01T09:03:57.162Z,97877.06
2022-11-01T09:06:24.355Z,97880.34
2022-11-01T09:08:50.885Z,97864.50
2022-11-01T09:11:17.330Z,97867.59
2022-11-01T09:13:43.757Z,97855.50
2022-11-01T09:16:10.276Z,97854.13
2022-11-01T09:18:36.817Z,97853.25
2022-11-01T09:21:03.544Z,97856.69
2022-11-01T09:23:30.016Z,97849.47
2022-11-01T09:26:03.817Z,97850.09
2022-11-01T09:28:33.840Z,97856.66
2022-11-01T09:31:19.603Z,97857.78
2022-11-01T09:33:47.267Z,97858.19
2022-11-01T09:36:13.705Z,97858.59
2022-11-01T09:38:40.295Z,97862.13
2022-11-01T09:41:25.321Z,97858.31
2022-11-01T09:43:52.998Z,97866.31
2022-11-01T09:48:55.419Z,97864.94
2022-11-01T09:51:23.998Z,97866.16
2022-11-01T09:53:52.450Z,97848.84
2022-11-01T09:56:30.404Z,97856.97
2022-11-01T09:59:01.658Z,97844.78
2022-11-01T10:01:41.175Z,97856.25
2022-11-01T10:04:20.226Z,97849.56
2022-11-01T10:06:51.875Z,97831.25
2022-11-01T10:09:41.683Z,97840.66
2022-11-01T10:12:26.478Z,97835.47
2022-11-01T10:15:05.182Z,97842.28
2022-11-01T10:17:52.656Z,97838.97
2022-11-01T10:20:21.520Z,97829.50
2022-11-01T10:22:49.185Z,97825.34
2022-11-01T10:25:22.581Z,97825.44
2022-11-01T10:28:07.656Z,97825.53
2022-11-01T10:30:39.987Z,97832.94
2022-11-01T10:33:16.903Z,97818.06
2022-11-01T10:35:44.997Z,97826.53
2022-11-01T10:38:49.577Z,97822.44
2022-11-01T10:41:19.828Z,97811.03
2022-11-01T10:43:48.949Z,97825.00
2022-11-01T10:46:18.826Z,97813.16
2022-11-01T10:48:48.318Z,97816.13
2022-11-01T10:51:17.263Z,97816.00
2022-11-01T10:53:46.358Z,97821.25
2022-11-01T10:56:19.894Z,97818.41
2022-11-01T10:58:52.536Z,97808.47
2022-11-01T11:01:20.418Z,97803.50
2022-11-01T11:03:47.456Z,97813.91
2022-11-01T11:06:15.512Z,97807.63
2022-11-01T11:08:43.813Z,97805.63
2022-11-01T11:11:15.021Z,97803.00
2022-11-01T11:13:47.755Z,97800.47
2022-11-01T11:16:23.595Z,97795.75
2022-11-01T11:19:16.095Z,97792.91
2022-11-01T11:21:44.761Z,97792.31
2022-11-01T11:24:19.743Z,97791.41
2022-11-01T11:26:52.885Z,97783.06
2022-11-01T11:29:35.539Z,97784.66
2022-11-01T11:32:03.192Z,97787.28
2022-11-01T11:34:32.203Z,97782.63
2022-11-01T11:37:00.506Z,97776.28
2022-11-01T11:39:28.085Z,97768.44
2022-11-01T11:41:54.938Z,97769.97
2022-11-01T11:44:40.284Z,97773.03
2022-11-01T11:47:17.863Z,97766.78
2022-11-01T11:49:44.793Z,97775.66
2022-11-01T11:52:39.738Z,97769.06
2022-11-01T11:55:25.656Z,97767.97
2022-11-01T11:57:53.636Z,97764.41
2022-11-01T12:00:22.151Z,97763.81
2022-11-01T12:02:49.940Z,97755.34
2022-11-01T12:05:22.409Z,97761.56
2022-11-01T12:07:51.604Z,97755.09
2022-11-01T12:10:34.820Z,97761.94
2022-11-01T12:13:02.444Z,97760.63
2022-11-01T12:15:36.943Z,97760.94
2022-11-01T12:18:16.049Z,97760.72
2022-11-01T12:20:43.239Z,97758.34
2022-11-01T12:23:16.225Z,97754.72
2022-11-01T12:25:44.293Z,97758.50
2022-11-01T12:28:19.429Z,97759.19
2022-11-01T12:30:48.732Z,97755.13
2022-11-01T12:33:22.885Z,97758.22
2022-11-01T12:35:52.228Z,97744.56
2022-11-01T12:38:34.299Z,97755.78
2022-11-01T12:41:20.960Z,97756.34
2022-11-01T12:43:50.431Z,97753.56
2022-11-01T12:46:24.755Z,97754.06
2022-11-01T12:48:54.991Z,97759.50
2022-11-01T12:51:27.305Z,97755.63
2022-11-01T12:54:01.891Z,97749.16
2022-11-01T12:56:28.324Z,97747.19
2022-11-01T12:58:55.623Z,97752.72
2022-11-01T13:01:26.623Z,97761.72
2022-11-01T13:04:11.788Z,97749.50
2022-11-01T13:06:57.034Z,97749.84
2022-11-01T13:09:23.444Z,97755.91
2022-11-01T13:12:09.241Z,97762.25
2022-11-01T13:14:52.255Z,97757.34
2022-11-01T13:17:22.164Z,97761.41
2022-11-01T13:19:55.700Z,97763.72
2022-11-01T13:22:22.347Z,97758.56
2022-11-01T13:24:54.372Z,97763.34
2022-11-01T13:27:20.860Z,97766.44
2022-11-01T13:29:56.878Z,97763.56
2022-11-01T13:32:29.509Z,97758.59
2022-11-01T13:35:14.742Z,97765.22
2022-11-01T13:37:43.678Z,97764.97
2022-11-01T13:40:18.453Z,97772.78
2022-11-01T13:42:59.853Z,97764.56
2022-11-01T13:45:29.673Z,97767.13
2022-11-01T13:48:03.400Z,97769.66
2022-11-01T13:50:45.781Z,97767.13
2022-11-01T13:53:20.601Z,97775.06
2022-11-01T13:56:07.174Z,97775.25
2022-11-01T13:58:35.913Z,97775.72
2022-11-01T14:01:20.937Z,97776.94
2022-11-01T14:03:49.844Z,97772.38
2022-11-01T14:06:22.354Z,97779.91
2022-11-01T14:08:49.474Z,97780.66
2022-11-01T14:11:34.413Z,97790.00
2022-11-01T14:14:20.853Z,97785.97
2022-11-01T14:16:47.281Z,97792.31
2022-11-01T14:19:19.208Z,97792.25
2022-11-01T14:21:48.674Z,97794.44
2022-11-01T14:24:33.816Z,97790.03
2022-11-01T14:27:04.445Z,97800.06
2022-11-01T14:29:31.400Z,97793.00
2022-11-01T14:31:58.624Z,97796.91
2022-11-01T14:34:27.730Z,97800.88
2022-11-01T14:36:55.595Z,97805.22
2022-11-01T14:39:26.425Z,97808.00
2022-11-01T14:41:56.210Z,97810.69
2022-11-01T14:44:30.677Z,97815.88
2022-11-01T14:46:59.323Z,97813.53
2022-11-01T14:49:28.737Z,97821.50
2022-11-01T14:52:04.375Z,97816.31
2022-11-01T14:54:36.505Z,97832.31
2022-11-01T14:57:03.033Z,97827.94
2022-11-01T14:59:32.049Z,97836.78
2022-11-01T15:02:03.690Z,97832.50
2022-11-01T15:04:39.440Z,97829.94
2022-11-01T15:07:23.695Z,97838.13
2022-11-01T15:10:00.220Z,97840.47
2022-11-01T15:12:27.968Z,97840.25
2022-11-01T15:14:55.924Z,97857.06
2022-11-01T15:17:33.505Z,97857.06
2022-11-01T15:20:01.420Z,97859.34
2022-11-01T15:22:30.415Z,97868.75
2022-11-01T15:24:57.955Z,97876.66
2022-11-01T15:27:27.968Z,97879.22
2022-11-01T15:29:55.118Z,97883.25
2022-11-01T15:32:32.494Z,97883.50
2022-11-01T15:35:00.236Z,97884.94
2022-11-01T15:37:28.432Z,97890.28
2022-11-01T15:39:54.959Z,97899.38
2022-11-01T15:42:27.430Z,97898.88
2022-11-01T15:44:53.932Z,97905.63
2022-11-01T15:47:22.249Z,97900.66
2022-11-01T15:50:00.926Z,97894.91
2022-11-01T15:52:30.289Z,97897.97
2022-11-01T15:55:05.625Z,97914.78
2022-11-01T15:57:45.073Z,97912.13
2022-11-01T16:00:18.062Z,97913.31
2022-11-01T16:02:47.893Z,97918.19
2022-11-01T16:05:17.638Z,97917.00
2022-11-01T16:07:44.594Z,97918.28
2022-11-01T16:10:16.839Z,97923.38
2022-11-01T16:12:44.356Z,97926.38
2022-11-01T16:15:23.037Z,97928.44
2022-11-01T16:17:49.567Z,97934.34
2022-11-01T16:20:25.860Z,97938.47
2022-11-01T16:22:52.555Z,97948.66
2022-11-01T16:25:21.447Z,97950.38
2022-11-01T16:27:54.701Z,97943.41
2022-11-01T16:30:33.100Z,97946.31
2022-11-01T16:33:08.630Z,97956.47
2022-11-01T16:35:36.088Z,97965.41
2022-11-01T16:38:02.789Z,97967.97
2022-11-01T16:40:34.257Z,97972.22
2022-11-01T16:43:00.752Z,97981.06
2022-11-01T16:45:27.471Z,97978.22
2022-11-01T16:47:58.136Z,97974.91
2022-11-01T16:50:25.024Z,97977.69
2022-11-01T16:52:51.461Z,97983.50
2022-11-01T16:55:18.389Z,97986.06
2022-11-01T16:57:47.212Z,97991.97
2022-11-01T17:00:14.873Z,97996.91
2022-11-01T17:02:41.666Z,97999.69
2022-11-01T17:05:28.472Z,98012.72
2022-11-01T17:07:56.457Z,98010.31
2022-11-01T17:10:29.996Z,98011.84
2022-11-01T17:12:58.328Z,98017.63
2022-11-01T17:15:26.750Z,98021.16
2022-11-01T17:17:53.820Z,98018.47
2022-11-01T17:20:23.016Z,98028.63
2022-11-01T17:22:51.732Z,98033.59
2022-11-01T17:25:20.195Z,98037.81
2022-11-01T17:27:51.710Z,98041.19
2022-11-01T17:30:19.139Z,98038.16
2022-11-01T17:32:45.654Z,98040.00
2022-11-01T17:35:12.327Z,98045.28
2022-11-01T17:37:42.525Z,98045.97
2022-11-01T17:40:17.167Z,98057.31
2022-11-01T17:42:43.685Z,98053.09
2022-11-01T17:45:10.696Z,98054.16
2022-11-01T17:47:37.124Z,98065.69
2022-11-01T17:50:04.132Z,98070.09
2022-11-01T17:52:30.572Z,98059.59
2022-11-01T17:54:57.172Z,98059.09
2022-11-01T17:57:23.642Z,98059.44
2022-11-01T17:59:50.035Z,98066.88
2022-11-01T18:02:16.509Z,98062.28
2022-11-01T18:04:43.115Z,98044.34
2022-11-01T18:07:11.709Z,98052.47
2022-11-01T18:09:39.040Z,98069.75
2022-11-01T18:12:05.643Z,98076.13
2022-11-01T18:14:55.301Z,98080.66
2022-11-01T18:17:40.217Z,98071.75
2022-11-01T18:20:12.735Z,98073.47
2022-11-01T18:23:05.489Z,98069.41
2022-11-01T18:25:36.639Z,98063.47
2022-11-01T18:28:11.247Z,98054.19
2022-11-01T18:30:37.716Z,98050.41
2022-11-01T18:33:14.257Z,98061.94
2022-11-01T18:35:49.940Z,98066.00
2022-11-01T18:38:25.957Z,98088.03
2022-11-01T18:41:00.314Z,98072.34
2022-11-01T18:43:40.095Z,98056.53
2022-11-01T18:46:24.375Z,98076.16
2022-11-01T18:48:59.536Z,98081.13
2022-11-01T18:51:31.135Z,98079.06
2022-11-01T18:54:12.667Z,98072.69
2022-11-01T18:56:50.513Z,98064.50
2022-11-01T18:59:24.986Z,98082.56
2022-11-01T19:01:53.753Z,98083.75
2022-11-01T19:04:23.655Z,98078.59
2022-11-01T19:06:50.290Z,98067.00
2022-11-01T19:09:21.355Z,98078.19
2022-11-01T19:11:48.357Z,98070.97
2022-11-01T19:14:17.925Z,98071.91
2022-11-01T19:16:45.586Z,98083.84
2022-11-01T19:19:17.684Z,98074.41
2022-11-01T19:21:44.145Z,98100.88
2022-11-01T19:24:26.853Z,98082.91
2022-11-01T19:26:53.334Z,98076.50
2022-11-01T19:29:25.210Z,98050.03
2022-11-01T19:31:54.476Z,98035.50
2022-11-01T19:34:22.889Z,98048.03
2022-11-01T19:36:49.724Z,98061.59
2022-11-01T19:39:25.177Z,98077.00
2022-11-01T19:41:53.063Z,98083.25
2022-11-01T19:44:21.225Z,98084.91
2022-11-01T19:46:48.180Z,98087.34
2022-11-01T19:49:21.562Z,98094.16
2022-11-01T19:52:00.118Z,98096.19
2022-11-01T19:54:30.851Z,98078.56
2022-11-01T19:56:59.333Z,98090.00
2022-11-01T19:59:25.749Z,98088.91
2022-11-01T20:01:52.253Z,98093.81
2022-11-01T20:04:27.825Z,98115.84
2022-11-01T20:07:01.036Z,98114.84
2022-11-01T20:09:29.070Z,98129.09
2022-11-01T20:11:56.161Z,98117.13
2022-11-01T20:14:22.589Z,98120.94
2022-11-01T20:16:49.060Z,98131.81
2022-11-01T20:19:17.700Z,98137.38
2022-11-01T20:21:44.708Z,98116.03
2022-11-01T20:24:11.280Z,98121.31
2022-11-01T20:26:38.084Z,98127.38
2022-11-01T20:29:04.562Z,98121.28
2022-11-01T20:31:31.246Z,98124.69
2022-11-01T20:33:58.230Z,98139.91
2022-11-01T20:36:24.781Z,98139.59
2022-11-01T20:38:51.326Z,98137.22
2022-11-01T20:41:19.040Z,98153.81
2022-11-01T20:43:45.679Z,98171.41
2022-11-01T20:46:12.451Z,98168.44
2022-11-01T20:48:38.920Z,98169.25
2022-11-01T20:51:06.134Z,98170.06
2022-11-01T20:53:33.142Z,98165.00
2022-11-01T20:55:59.713Z,98165.34
2022-11-01T20:58:26.544Z,98152.94
2022-11-01T21:00:53.051Z,98171.78
2022-11-01T21:03:20.623Z,98167.50
2022-11-01T21:05:47.961Z,98156.47
2022-11-01T21:08:14.877Z,98167.72
2022-11-01T21:10:42.318Z,98170.69
2022-11-01T21:13:29.012Z,98160.34
2022-11-01T21:15:59.450Z,98155.63
2022-11-01T21:18:31.769Z,98155.31
2022-11-01T21:20:59.416Z,98146.66
2022-11-01T21:23:32.110Z,98149.69
2022-11-01T21:26:06.588Z,98148.69
2022-11-01T21:28:42.466Z,98141.75
2022-11-01T21:31:15.034Z,98115.81
2022-11-01T21:33:42.868Z,98134.25
2022-11-01T21:36:15.196Z,98132.94
2022-11-01T21:38:41.668Z,98116.47
2022-11-01T21:41:15.564Z,98114.06
2022-11-01T21:43:44.101Z,98128.97
2022-11-01T21:46:14.429Z,98116.34
2022-11-01T21:48:40.952Z,98109.69
2022-11-01T21:51:07.358Z,98104.88
2022-11-01T21:53:34.614Z,98116.38
2022-11-01T21:56:01.068Z,98110.28
2022-11-01T21:58:27.644Z,98108.00
2022-11-01T22:00:54.096Z,98109.00
2022-11-01T22:03:20.653Z,98109.94
2022-11-01T22:05:47.144Z,98114.97
2022-11-01T22:08:13.973Z,98108.78
2022-11-01T22:10:40.463Z,98116.53
2022-11-01T22:13:07.228Z,98117.38
2022-11-01T22:15:33.754Z,98120.00
2022-11-01T22:18:00.168Z,98123.53
2022-11-01T22:20:26.673Z,98119.75
2022-11-01T22:22:53.763Z,98121.78
2022-11-01T22:25:20.188Z,98118.38
2022-11-01T22:27:46.643Z,98119.91
2022-11-01T22:30:13.202Z,98112.03
2022-11-01T22:32:39.645Z,98118.31
2022-11-01T22:35:06.286Z,98119.03
2022-11-01T22:37:34.601Z,98112.78
2022-11-01T22:40:01.606Z,98108.50
2022-11-01T22:42:28.167Z,98111.88
2022-11-01T22:44:54.636Z,98110.56
2022-11-01T22:47:24.432Z,98110.91
2022-11-01T22:49:54.824Z,98113.63
2022-11-01T22:52:31.557Z,98102.13
2022-11-01T22:55:01.732Z,98114.47
2022-11-01T22:57:31.760Z,98108.47
2022-11-01T23:00:00.816Z,98109.31
2022-11-01T23:02:30.222Z,98109.25
2022-11-01T23:04:59.856Z,98114.53
2022-11-01T23:07:32.015Z,98115.19
2022-11-01T23:10:05.171Z,98108.47
2022-11-01T23:12:50.999Z,98112.69
2022-11-01T23:15:26.960Z,98113.22
2022-11-01T23:17:53.636Z,98113.22
2022-11-01T23:20:20.180Z,98113.94
2022-11-01T23:22:46.580Z,98122.03
2022-11-01T23:25:13.075Z,98111.72
2022-11-01T23:27:43.048Z,98112.56
2022-11-01T23:30:09.733Z,98116.09
2022-11-01T23:32:36.189Z,98111.44
2022-11-01T23:35:14.196Z,98122.66
2022-11-01T23:37:41.158Z,98126.41
2022-11-01T23:40:15.487Z,98123.72
2022-11-01T23:42:42.264Z,98129.06
2022-11-01T23:45:19.340Z,98129.19
2022-11-01T23:47:46.348Z,98135.53
2022-11-01T23:50:22.205Z,98141.13
2022-11-01T23:52:55.713Z,98139.63
2022-11-01T23:55:24.971Z,98134.84
2022-11-01T23:57:53.050Z,98141.63
